Time,TemperatureF,DewpointF,PressureIn,WindDirection,WindDirectionDegrees,WindSpeedMPH,WindSpeedGustMPH,Humidity,HourlyPrecipIn,Conditions,Clouds,dailyrainin,SolarRadiationWatts/m^2,SoftwareType,DateUTC
2013-06-04 00:01:00,63.1,53.2,29.94,NNW,335,1.7,4.5,70,0.00,RA,,0.00,0.0,WeatherDisplay:10.37,2013-06-04 04:01:00,
2013-06-04 00:04:00,62.9,53.0,29.94,NNW,335,1.5,3.5,70,0.00,RA,,0.00,0.0,WeatherDisplay:10.37,2013-06-04 04:04:00,
2013-06-04 00:09:00,62.7,53.2,29.94,NNW,336,4.1,4.6,71,0.00,RA,,0.00,0.0,WeatherDisplay:10.37,2013-06-04 04:09:00,
2013-06-04 00:14:00,62.6,53.1,29.94,NNW,336,0.5,1.2,71,0.00,BKN,,0.00,0.0,WeatherDisplay:10.37,2013-06-04 04:14:00,
2013-06-04 00:19:00,62.4,52.9,29.94,NNW,336,0.0,0.0,71,0.00,BKN,,0.00,0.0,WeatherDisplay:10.37,2013-06-04 04:19:00,
2013-06-04 00:24:00,62.1,52.6,29.95,NNW,336,0.0,0.0,71,0.00,BKN,,0.00,0.0,WeatherDisplay:10.37,2013-06-04 04:24:00,
2013-06-04 00:29:00,62.0,52.5,29.94,NW,319,0.0,0.0,71,0.00,BKN,,0.00,0.0,WeatherDisplay:10.37,2013-06-04 04:29:00,
2013-06-04 00:34:00,61.8,52.7,29.95,NW,319,0.2,1.2,72,0.00,BKN,,0.00,0.0,WeatherDisplay:10.37,2013-06-04 04:34:00,
2013-06-04 00:39:00,61.6,52.5,29.95,NW,319,0.0,3.5,72,0.00,BKN,,0.00,0.0,WeatherDisplay:10.37,2013-06-04 04:39:00,
2013-06-04 00:44:00,61.8,52.7,29.95,NW,320,0.1,1.2,72,0.00,BKN,,0.00,0.0,WeatherDisplay:10.37,2013-06-04 04:44:00,
2013-06-04 00:49:00,61.6,52.5,29.95,NW,320,0.0,1.5,72,0.00,BKN,,0.00,0.0,WeatherDisplay:10.37,2013-06-04 04:49:00,
2013-06-04 00:54:00,61.6,52.5,29.95,NW,319,1.7,4.6,72,0.00,BKN,,0.00,0.0,WeatherDisplay:10.37,2013-06-04 04:54:00,
2013-06-04 00:59:00,61.5,52.4,29.95,NW,320,0.3,4.6,72,0.00,BKN,,0.00,0.0,WeatherDisplay:10.37,2013-06-04 04:59:00,
2013-06-04 01:04:00,61.3,52.2,29.95,NW,320,0.0,0.0,72,0.00,BKN,,0.00,0.0,WeatherDisplay:10.37,2013-06-04 05:04:00,
2013-06-04 01:09:00,61.3,52.2,29.95,NW,320,0.0,0.0,72,0.00,BKN,,0.00,0.0,WeatherDisplay:10.37,2013-06-04 05:09:00,
2013-06-04 01:14:00,60.9,51.8,29.96,NW,320,0.0,0.0,72,0.00,SCT,,0.00,0.0,WeatherDisplay:10.37,2013-06-04 05:14:00,
2013-06-04 01:19:00,60.5,51.8,29.95,NW,320,0.0,0.0,73,0.00,SCT,,0.00,0.0,WeatherDisplay:10.37,2013-06-04 05:19:00,
2013-06-04 01:24:00,60.4,52.1,29.95,NW,320,0.0,0.0,74,0.00,SCT,,0.00,0.0,WeatherDisplay:10.37,2013-06-04 05:24:00,
2013-06-04 01:29:00,60.2,51.9,29.96,NW,320,0.0,0.0,74,0.00,SCT,,0.00,0.0,WeatherDisplay:10.37,2013-06-04 05:29:00,
2013-06-04 01:34:00,59.9,51.6,29.96,NW,320,0.0,0.0,74,0.00,SCT,,0.00,0.0,WeatherDisplay:10.37,2013-06-04 05:34:00,
2013-06-04 01:39:00,59.8,51.5,29.96,NW,320,0.0,0.0,74,0.00,SCT,,0.00,0.0,WeatherDisplay:10.37,2013-06-04 05:39:00,
2013-06-04 01:44:00,59.5,51.2,29.96,NW,320,0.4,1.5,74,0.00,SCT,,0.00,0.0,WeatherDisplay:10.37,2013-06-04 05:44:00,
2013-06-04 01:49:00,59.2,51.3,29.96,NW,320,0.0,0.0,75,0.00,SCT,,0.00,0.0,WeatherDisplay:10.37,2013-06-04 05:49:00,
2013-06-04 01:54:00,59.0,51.4,29.96,NW,320,0.1,1.2,76,0.00,SCT,,0.00,0.0,WeatherDisplay:10.37,2013-06-04 05:54:00,
2013-06-04 01:59:00,58.9,51.3,29.96,NW,320,0.0,0.0,76,0.00,SCT,,0.00,0.0,WeatherDisplay:10.37,2013-06-04 05:59:00,
2013-06-04 02:04:00,58.7,51.2,29.96,NW,320,0.0,0.0,76,0.00,SCT,,0.00,0.0,WeatherDisplay:10.37,2013-06-04 06:04:00,
2013-06-04 02:09:00,58.4,50.9,29.96,NW,320,0.0,0.0,76,0.00,SCT,,0.00,0.0,WeatherDisplay:10.37,2013-06-04 06:09:00,
2013-06-04 02:14:00,58.3,51.1,29.96,NW,320,0.0,0.0,77,0.00,BKN,,0.00,0.0,WeatherDisplay:10.37,2013-06-04 06:14:00,
2013-06-04 02:19:00,58.1,50.9,29.96,NW,320,0.0,1.2,77,0.00,BKN,,0.00,0.0,WeatherDisplay:10.37,2013-06-04 06:19:00,
2013-06-04 02:24:00,57.8,51.0,29.96,NW,320,0.1,1.2,78,0.00,BKN,,0.00,0.0,WeatherDisplay:10.37,2013-06-04 06:24:00,
2013-06-04 02:29:00,57.6,50.8,29.96,NW,320,0.1,1.2,78,0.00,BKN,,0.00,0.0,WeatherDisplay:10.37,2013-06-04 06:29:00,
2013-06-04 02:34:00,57.6,50.8,29.96,NW,320,0.0,0.0,78,0.00,BKN,,0.00,0.0,WeatherDisplay:10.37,2013-06-04 06:34:00,
2013-06-04 02:39:00,57.5,50.7,29.96,NW,320,0.4,1.5,78,0.00,BKN,,0.00,0.0,WeatherDisplay:10.37,2013-06-04 06:39:00,
2013-06-04 02:44:00,57.5,50.7,29.96,NW,320,0.0,0.0,78,0.00,BKN,,0.00,0.0,WeatherDisplay:10.37,2013-06-04 06:44:00,
2013-06-04 02:49:00,57.5,50.7,29.97,NW,320,0.0,0.0,78,0.00,BKN,,0.00,0.0,WeatherDisplay:10.37,2013-06-04 06:49:00,
2013-06-04 02:54:00,57.5,50.7,29.97,NW,320,0.0,0.0,78,0.00,BKN,,0.00,0.0,WeatherDisplay:10.37,2013-06-04 06:54:00,
2013-06-04 02:59:00,57.2,50.1,29.97,NW,320,0.0,0.0,77,0.00,BKN,,0.00,0.0,WeatherDisplay:10.37,2013-06-04 06:59:00,
2013-06-04 03:04:00,56.7,49.9,29.97,NW,320,0.0,0.0,78,0.00,SCT,,0.00,0.0,WeatherDisplay:10.37,2013-06-04 07:04:00,
2013-06-04 03:09:00,56.2,49.4,29.97,NW,320,0.0,0.0,78,0.00,SCT,,0.00,0.0,WeatherDisplay:10.37,2013-06-04 07:09:00,
2013-06-04 03:14:00,55.4,49.0,29.97,NW,320,0.0,0.0,79,0.00,SCT,,0.00,0.0,WeatherDisplay:10.37,2013-06-04 07:14:00,
2013-06-04 03:19:00,54.8,48.7,29.97,NW,320,0.0,0.0,80,0.00,SCT,,0.00,0.0,WeatherDisplay:10.37,2013-06-04 07:19:00,
2013-06-04 03:24:00,54.5,48.5,29.97,NW,320,0.0,0.0,80,0.00,SCT,,0.00,0.0,WeatherDisplay:10.37,2013-06-04 07:24:00,
2013-06-04 03:29:00,54.1,48.4,29.97,NW,320,0.0,0.0,81,0.00,SCT,,0.00,0.0,WeatherDisplay:10.37,2013-06-04 07:29:00,
2013-06-04 03:34:00,53.8,48.8,29.97,NW,320,0.0,0.0,83,0.00,SCT,,0.00,0.0,WeatherDisplay:10.37,2013-06-04 07:34:00,
2013-06-04 03:39:00,54.4,49.3,29.97,WNW,302,2.4,4.6,83,0.00,SCT,,0.00,0.0,WeatherDisplay:10.37,2013-06-04 07:39:00,
2013-06-04 03:44:00,55.6,49.5,29.97,WNW,302,0.0,0.0,80,0.00,SCT,,0.00,0.0,WeatherDisplay:10.37,2013-06-04 07:44:00,
2013-06-04 03:49:00,56.0,48.9,29.98,WNW,302,1.5,4.6,77,0.00,SCT,,0.00,0.0,WeatherDisplay:10.37,2013-06-04 07:49:00,
2013-06-04 03:54:00,56.6,48.4,29.98,NNW,331,0.0,1.5,74,0.00,SCT,,0.00,0.0,WeatherDisplay:10.37,2013-06-04 07:54:00,
2013-06-04 03:59:00,57.3,48.3,29.98,NNW,345,1.6,8.1,72,0.00,SCT,,0.00,0.0,WeatherDisplay:10.37,2013-06-04 07:59:00,
2013-06-04 04:04:00,57.3,48.3,29.98,NNW,345,1.4,3.5,72,0.00,SCT,,0.00,0.0,WeatherDisplay:10.37,2013-06-04 08:04:00,
2013-06-04 04:09:00,57.0,48.1,29.98,NNW,342,1.8,4.5,72,0.00,SCT,,0.00,0.0,WeatherDisplay:10.37,2013-06-04 08:09:00,
2013-06-04 04:14:00,56.7,48.1,29.98,NW,322,4.5,9.2,73,0.00,SCT,,0.00,0.0,WeatherDisplay:10.37,2013-06-04 08:14:00,
2013-06-04 04:19:00,56.5,47.9,29.98,NW,322,0.5,1.5,73,0.00,SCT,,0.00,0.0,WeatherDisplay:10.37,2013-06-04 08:19:00,
2013-06-04 04:24:00,56.3,47.4,29.98,NW,322,0.0,1.2,72,0.00,SCT,,0.00,0.0,WeatherDisplay:10.37,2013-06-04 08:24:00,
2013-06-04 04:29:00,55.9,47.7,29.99,NW,322,0.0,0.0,74,0.00,SCT,,0.00,0.0,WeatherDisplay:10.37,2013-06-04 08:29:00,
2013-06-04 04:34:00,55.3,47.5,29.99,NW,322,0.0,0.0,75,0.00,SCT,,0.00,0.0,WeatherDisplay:10.37,2013-06-04 08:34:00,
2013-06-04 04:39:00,54.8,47.0,29.99,NW,322,0.1,1.5,75,0.00,SCT,,0.00,0.0,WeatherDisplay:10.37,2013-06-04 08:39:00,
2013-06-04 04:44:00,54.7,46.9,29.99,NW,311,2.7,4.5,75,0.00,SCT,,0.00,0.0,WeatherDisplay:10.37,2013-06-04 08:44:00,
2013-06-04 04:49:00,55.0,46.5,29.99,NW,321,4.4,8.1,73,0.00,SCT,,0.00,0.0,WeatherDisplay:10.37,2013-06-04 08:49:00,
2013-06-04 04:54:00,55.3,46.4,30.00,NNW,332,4.2,8.1,72,0.00,SCT,,0.00,0.0,WeatherDisplay:10.37,2013-06-04 08:54:00,
2013-06-04 04:59:00,55.4,46.2,30.00,NNW,331,1.9,4.6,71,0.00,SCT,,0.00,0.0,WeatherDisplay:10.37,2013-06-04 08:59:00,
2013-06-04 05:04:00,55.4,46.2,30.00,NNW,336,3.9,4.6,71,0.00,SCT,,0.00,0.0,WeatherDisplay:10.37,2013-06-04 09:04:00,
2013-06-04 05:09:00,55.3,46.1,30.00,NW,323,3.8,9.2,71,0.00,SCT,,0.00,0.0,WeatherDisplay:10.37,2013-06-04 09:09:00,
2013-06-04 05:14:00,55.1,45.9,30.00,NW,324,2.7,6.0,71,0.00,SCT,,0.00,0.0,WeatherDisplay:10.37,2013-06-04 09:14:00,
2013-06-04 05:19:00,55.0,45.8,30.01,NW,326,5.5,8.1,71,0.00,SCT,,0.00,0.0,WeatherDisplay:10.37,2013-06-04 09:19:00,
2013-06-04 05:24:00,54.7,45.5,30.01,NW,326,2.3,5.8,71,0.00,SCT,,0.00,0.0,WeatherDisplay:10.37,2013-06-04 09:24:00,
2013-06-04 05:29:00,54.5,45.3,30.01,NW,325,1.3,4.6,71,0.00,SCT,,0.00,0.0,WeatherDisplay:10.37,2013-06-04 09:29:00,
2013-06-04 05:34:00,54.4,45.2,30.02,NW,321,2.4,4.6,71,0.00,SCT,,0.00,0.0,WeatherDisplay:10.37,2013-06-04 09:34:00,
2013-06-04 05:39:00,54.2,45.0,30.02,NW,319,4.9,8.1,71,0.00,SCT,,0.00,0.0,WeatherDisplay:10.37,2013-06-04 09:39:00,
2013-06-04 05:44:00,54.1,44.9,30.02,NW,320,1.0,3.5,71,0.00,SCT,,0.00,0.0,WeatherDisplay:10.37,2013-06-04 09:44:00,
2013-06-04 05:49:00,53.9,44.7,30.02,NW,316,2.2,4.6,71,0.00,SCT,,0.00,5.0,WeatherDisplay:10.37,2013-06-04 09:49:00,
2013-06-04 05:54:00,53.8,44.2,30.02,NW,319,2.8,4.6,70,0.00,SCT,,0.00,7.0,WeatherDisplay:10.37,2013-06-04 09:54:00,
2013-06-04 05:59:00,53.8,44.2,30.03,NW,319,0.0,0.0,70,0.00,SCT,,0.00,9.0,WeatherDisplay:10.37,2013-06-04 09:59:00,
2013-06-04 06:04:00,53.3,43.8,30.03,NW,319,0.0,0.0,70,0.00,FEW,,0.00,11.0,WeatherDisplay:10.37,2013-06-04 10:04:00,
2013-06-04 06:09:00,53.1,43.9,30.03,NW,319,0.0,0.0,71,0.00,FEW,,0.00,12.0,WeatherDisplay:10.37,2013-06-04 10:09:00,
2013-06-04 06:14:00,52.8,44.0,30.04,NW,319,0.0,0.0,72,0.00,FEW,,0.00,16.0,WeatherDisplay:10.37,2013-06-04 10:14:00,
2013-06-04 06:19:00,52.5,44.1,30.04,NW,319,0.0,0.0,73,0.00,FEW,,0.00,18.0,WeatherDisplay:10.37,2013-06-04 10:19:00,
2013-06-04 06:24:00,52.2,43.8,30.04,NW,319,0.0,0.0,73,0.00,FEW,,0.00,19.0,WeatherDisplay:10.37,2013-06-04 10:24:00,
2013-06-04 06:29:00,52.0,44.0,30.04,NW,319,0.0,0.0,74,0.00,FEW,,0.00,21.0,WeatherDisplay:10.37,2013-06-04 10:29:00,
2013-06-04 06:34:00,51.9,43.9,30.04,NW,319,0.0,0.0,74,0.00,FEW,,0.00,23.0,WeatherDisplay:10.37,2013-06-04 10:34:00,
2013-06-04 06:39:00,51.9,43.9,30.05,NW,319,0.0,0.0,74,0.00,FEW,,0.00,25.0,WeatherDisplay:10.37,2013-06-04 10:39:00,
2013-06-04 06:44:00,51.9,43.9,30.05,NW,319,0.0,0.0,74,0.00,FEW,,0.00,62.0,WeatherDisplay:10.37,2013-06-04 10:44:00,
2013-06-04 06:49:00,51.9,44.2,30.05,NW,319,0.0,0.0,75,0.00,FEW,,0.00,123.0,WeatherDisplay:10.37,2013-06-04 10:49:00,
2013-06-04 06:54:00,52.3,44.6,30.05,NW,319,0.0,0.0,75,0.00,FEW,,0.00,139.0,WeatherDisplay:10.37,2013-06-04 10:54:00,
2013-06-04 06:59:00,52.9,44.8,30.05,NW,319,1.3,3.5,74,0.00,FEW,,0.00,158.0,WeatherDisplay:10.37,2013-06-04 10:59:00,
2013-06-04 07:04:00,53.5,44.7,30.05,NW,319,1.9,4.6,72,0.00,FEW,,0.00,178.0,WeatherDisplay:10.37,2013-06-04 11:04:00,
2013-06-04 07:09:00,54.1,44.5,30.05,NW,311,4.2,8.1,70,0.00,FEW,,0.00,197.0,WeatherDisplay:10.37,2013-06-04 11:09:00,
2013-06-04 07:14:00,54.5,44.9,30.05,NW,312,0.5,1.5,70,0.00,FEW,,0.00,216.0,WeatherDisplay:10.37,2013-06-04 11:14:00,
2013-06-04 07:19:00,55.0,44.6,30.05,NW,324,3.2,4.6,68,0.00,FEW,,0.00,236.0,WeatherDisplay:10.37,2013-06-04 11:19:00,
2013-06-04 07:24:00,55.1,44.7,30.06,North,9,2.9,6.0,68,0.00,FEW,,0.00,251.0,WeatherDisplay:10.37,2013-06-04 11:24:00,
2013-06-04 07:29:00,55.6,44.4,30.06,NW,313,4.1,10.4,66,0.00,FEW,,0.00,267.0,WeatherDisplay:10.37,2013-06-04 11:29:00,
2013-06-04 07:34:00,55.9,44.7,30.06,NW,319,3.0,4.6,66,0.00,FEW,,0.00,285.0,WeatherDisplay:10.37,2013-06-04 11:34:00,
2013-06-04 07:39:00,56.0,44.4,30.07,WNW,301,3.3,5.8,65,0.00,FEW,,0.00,301.0,WeatherDisplay:10.37,2013-06-04 11:39:00,
2013-06-04 07:44:00,56.3,44.7,30.07,NW,306,1.8,3.5,65,0.00,FEW,,0.00,313.0,WeatherDisplay:10.37,2013-06-04 11:44:00,
2013-06-04 07:49:00,56.7,45.1,30.07,NW,306,1.0,3.5,65,0.00,FEW,,0.00,332.0,WeatherDisplay:10.37,2013-06-04 11:49:00,
2013-06-04 07:54:00,57.0,44.5,30.07,NW,306,0.7,4.6,63,0.00,FEW,,0.00,348.0,WeatherDisplay:10.37,2013-06-04 11:54:00,
2013-06-04 07:59:00,57.5,45.4,30.07,NW,310,3.3,4.6,64,0.00,FEW,,0.00,362.0,WeatherDisplay:10.37,2013-06-04 11:59:00,
2013-06-04 08:04:00,57.6,44.7,30.08,NW,311,2.4,4.6,62,0.00,FEW,,0.00,378.0,WeatherDisplay:10.37,2013-06-04 12:04:00,
2013-06-04 08:09:00,58.1,44.7,30.08,NW,311,0.1,1.2,61,0.00,FEW,,0.00,396.0,WeatherDisplay:10.37,2013-06-04 12:09:00,
2013-06-04 08:14:00,58.6,45.2,30.08,NW,312,0.1,1.2,61,0.00,FEW,,0.00,411.0,WeatherDisplay:10.37,2013-06-04 12:14:00,
2013-06-04 08:19:00,59.3,46.3,30.08,NW,312,0.1,1.2,62,0.00,FEW,,0.00,427.0,WeatherDisplay:10.37,2013-06-04 12:19:00,
2013-06-04 08:24:00,59.5,44.7,30.08,NW,312,1.6,4.6,58,0.00,FEW,,0.00,443.0,WeatherDisplay:10.37,2013-06-04 12:24:00,
2013-06-04 08:29:00,59.3,45.4,30.09,NW,312,0.7,1.5,60,0.00,FEW,,0.00,459.0,WeatherDisplay:10.37,2013-06-04 12:29:00,
2013-06-04 08:34:00,59.5,45.2,30.09,NNW,333,1.7,4.6,59,0.00,FEW,,0.00,473.0,WeatherDisplay:10.37,2013-06-04 12:34:00,
2013-06-04 08:39:00,59.8,45.4,30.09,NNE,24,1.7,3.0,59,0.00,FEW,,0.00,489.0,WeatherDisplay:10.37,2013-06-04 12:39:00,
2013-06-04 08:44:00,59.8,45.4,30.09,NNW,334,1.4,3.5,59,0.00,FEW,,0.00,503.0,WeatherDisplay:10.37,2013-06-04 12:44:00,
2013-06-04 08:49:00,59.9,45.1,30.09,NNW,336,0.2,1.5,58,0.00,FEW,,0.00,519.0,WeatherDisplay:10.37,2013-06-04 12:49:00,
2013-06-04 08:54:00,60.4,45.1,30.09,NNW,336,0.4,1.5,57,0.00,FEW,,0.00,533.0,WeatherDisplay:10.37,2013-06-04 12:54:00,
2013-06-04 08:59:00,60.5,45.2,30.09,NW,322,3.1,4.6,57,0.00,FEW,,0.00,548.0,WeatherDisplay:10.37,2013-06-04 12:59:00,
2013-06-04 09:04:00,60.5,45.2,30.09,NNW,344,0.1,3.5,57,0.00,CLR,,0.00,561.0,WeatherDisplay:10.37,2013-06-04 13:04:00,
2013-06-04 09:09:00,60.7,45.4,30.10,NW,323,2.0,6.0,57,0.00,CLR,,0.00,575.0,WeatherDisplay:10.37,2013-06-04 13:09:00,
2013-06-04 09:14:00,60.7,45.8,30.10,North,5,3.7,4.6,58,0.00,CLR,,0.00,589.0,WeatherDisplay:10.37,2013-06-04 13:14:00,
2013-06-04 09:19:00,61.0,45.2,30.10,NNW,336,6.3,9.0,56,0.00,CLR,,0.00,605.0,WeatherDisplay:10.37,2013-06-04 13:19:00,
2013-06-04 09:24:00,61.0,45.2,30.10,NNW,348,1.9,4.6,56,0.00,CLR,,0.00,619.0,WeatherDisplay:10.37,2013-06-04 13:24:00,
2013-06-04 09:29:00,61.3,46.4,30.10,NE,40,6.0,7.5,58,0.00,CLR,,0.00,633.0,WeatherDisplay:10.37,2013-06-04 13:29:00,
2013-06-04 09:34:00,61.5,45.7,30.10,North,355,0.0,1.2,56,0.00,CLR,,0.00,643.0,WeatherDisplay:10.37,2013-06-04 13:34:00,
2013-06-04 09:39:00,61.6,46.2,30.10,NW,321,4.5,8.1,57,0.00,CLR,,0.00,656.0,WeatherDisplay:10.37,2013-06-04 13:39:00,
2013-06-04 09:44:00,61.8,46.4,30.10,NNW,327,0.8,1.5,57,0.00,CLR,,0.00,671.0,WeatherDisplay:10.37,2013-06-04 13:44:00,
2013-06-04 09:49:00,62.1,46.7,30.10,North,355,9.2,9.2,57,0.00,CLR,,0.00,684.0,WeatherDisplay:10.37,2013-06-04 13:49:00,
2013-06-04 09:54:00,62.6,47.1,30.10,NNW,343,5.6,9.2,57,0.00,CLR,,0.00,696.0,WeatherDisplay:10.37,2013-06-04 13:54:00,
2013-06-04 09:59:00,62.7,45.8,30.10,NNE,29,6.0,8.1,54,0.00,CLR,,0.00,710.0,WeatherDisplay:10.37,2013-06-04 13:59:00,
2013-06-04 10:04:00,63.1,46.7,30.10,NNW,338,4.5,9.2,55,0.00,CLR,,0.00,721.0,WeatherDisplay:10.37,2013-06-04 14:04:00,
2013-06-04 10:09:00,63.2,45.8,30.10,NNE,21,6.8,8.1,53,0.00,CLR,,0.00,733.0,WeatherDisplay:10.37,2013-06-04 14:09:00,
2013-06-04 10:14:00,63.2,45.8,30.10,NNW,336,4.0,5.8,53,0.00,CLR,,0.00,745.0,WeatherDisplay:10.37,2013-06-04 14:14:00,
2013-06-04 10:19:00,63.5,46.6,30.10,NW,315,6.5,10.5,54,0.00,CLR,,0.00,756.0,WeatherDisplay:10.37,2013-06-04 14:19:00,
2013-06-04 10:24:00,64.0,46.5,30.10,NNE,24,2.6,6.0,53,0.00,CLR,,0.00,768.0,WeatherDisplay:10.37,2013-06-04 14:24:00,
2013-06-04 10:29:00,64.0,46.5,30.10,NNW,338,4.9,8.1,53,0.00,CLR,,0.00,779.0,WeatherDisplay:10.37,2013-06-04 14:29:00,
2013-06-04 10:34:00,64.3,46.8,30.10,NW,308,8.7,9.2,53,0.00,CLR,,0.00,789.0,WeatherDisplay:10.37,2013-06-04 14:34:00,
2013-06-04 10:39:00,64.5,47.5,30.10,NNE,26,3.5,8.1,54,0.00,CLR,,0.00,800.0,WeatherDisplay:10.37,2013-06-04 14:39:00,
2013-06-04 10:44:00,64.5,46.0,30.10,NW,323,5.6,9.2,51,0.00,CLR,,0.00,809.0,WeatherDisplay:10.37,2013-06-04 14:44:00,
2013-06-04 10:49:00,64.8,47.8,30.10,NNW,340,6.8,9.0,54,0.00,CLR,,0.00,819.0,WeatherDisplay:10.37,2013-06-04 14:49:00,
2013-06-04 10:54:00,64.8,46.2,30.10,NNW,340,5.8,13.8,51,0.00,CLR,,0.00,831.0,WeatherDisplay:10.37,2013-06-04 14:54:00,
2013-06-04 10:59:00,65.0,45.4,30.10,NE,34,8.5,13.8,49,0.00,CLR,,0.00,837.0,WeatherDisplay:10.37,2013-06-04 14:59:00,
2013-06-04 11:04:00,65.0,45.4,30.09,NNE,24,2.9,6.0,49,0.00,CLR,,0.00,846.0,WeatherDisplay:10.37,2013-06-04 15:04:00,
2013-06-04 11:09:00,65.0,45.4,30.10,NNE,17,1.4,4.5,49,0.00,CLR,,0.00,854.0,WeatherDisplay:10.37,2013-06-04 15:09:00,
2013-06-04 11:14:00,65.5,46.4,30.09,NNW,340,5.1,6.0,50,0.00,CLR,,0.00,861.0,WeatherDisplay:10.37,2013-06-04 15:14:00,
2013-06-04 11:19:00,65.6,47.5,30.09,NNW,334,10.3,10.5,52,0.00,CLR,,0.00,875.0,WeatherDisplay:10.37,2013-06-04 15:19:00,
2013-06-04 11:24:00,66.0,48.4,30.09,NNW,329,4.2,6.0,53,0.00,CLR,,0.00,879.0,WeatherDisplay:10.37,2013-06-04 15:24:00,
2013-06-04 11:29:00,66.1,46.4,30.09,North,5,4.3,8.1,49,0.00,CLR,,0.00,884.0,WeatherDisplay:10.37,2013-06-04 15:29:00,
2013-06-04 11:34:00,66.4,47.2,30.09,NNW,328,1.3,3.5,50,0.00,CLR,,0.00,891.0,WeatherDisplay:10.37,2013-06-04 15:34:00,
2013-06-04 11:39:00,66.9,47.6,30.09,NNW,339,9.2,11.5,50,0.00,CLR,,0.00,898.0,WeatherDisplay:10.37,2013-06-04 15:39:00,
2013-06-04 11:44:00,67.1,46.7,30.09,NW,311,5.6,9.2,48,0.00,CLR,,0.00,905.0,WeatherDisplay:10.37,2013-06-04 15:44:00,
2013-06-04 11:49:00,66.9,47.1,30.09,NNW,327,12.5,18.4,49,0.00,CLR,,0.00,914.0,WeatherDisplay:10.37,2013-06-04 15:49:00,
2013-06-04 11:54:00,66.9,46.6,30.09,NW,326,8.6,13.8,48,0.00,CLR,,0.00,914.0,WeatherDisplay:10.37,2013-06-04 15:54:00,
2013-06-04 11:59:00,67.1,47.8,30.09,NNE,27,5.1,6.0,50,0.00,CLR,,0.00,925.0,WeatherDisplay:10.37,2013-06-04 15:59:00,
2013-06-04 12:04:00,67.3,46.4,30.09,NNW,334,10.6,19.6,47,0.00,CLR,,0.00,928.0,WeatherDisplay:10.37,2013-06-04 16:04:00,
2013-06-04 12:09:00,67.6,46.6,30.08,NNW,338,5.5,8.1,47,0.00,CLR,,0.00,930.0,WeatherDisplay:10.37,2013-06-04 16:09:00,
2013-06-04 12:14:00,67.8,46.3,30.08,NW,323,3.8,5.8,46,0.00,CLR,,0.00,932.0,WeatherDisplay:10.37,2013-06-04 16:14:00,
2013-06-04 12:19:00,68.1,46.5,30.08,NNW,344,10.4,13.8,46,0.00,CLR,,0.00,940.0,WeatherDisplay:10.37,2013-06-04 16:19:00,
2013-06-04 12:24:00,67.8,46.8,30.08,North,355,9.7,10.5,47,0.00,CLR,,0.00,942.0,WeatherDisplay:10.37,2013-06-04 16:24:00,
2013-06-04 12:29:00,68.1,48.8,30.08,NNW,341,4.9,8.1,50,0.00,CLR,,0.00,944.0,WeatherDisplay:10.37,2013-06-04 16:29:00,
2013-06-04 12:34:00,68.3,47.3,30.08,NNE,17,5.1,10.5,47,0.00,CLR,,0.00,946.0,WeatherDisplay:10.37,2013-06-04 16:34:00,
2013-06-04 12:39:00,67.9,45.2,30.08,NNW,338,1.9,5.8,44,0.00,CLR,,0.00,947.0,WeatherDisplay:10.37,2013-06-04 16:39:00,
2013-06-04 12:44:00,68.3,47.3,30.08,NNE,22,3.6,10.4,47,0.00,CLR,,0.00,947.0,WeatherDisplay:10.37,2013-06-04 16:44:00,
2013-06-04 12:49:00,68.4,45.6,30.08,ESE,111,8.6,9.2,44,0.00,CLR,,0.00,949.0,WeatherDisplay:10.37,2013-06-04 16:49:00,
2013-06-04 12:54:00,68.8,49.4,30.08,NW,319,3.6,7.5,50,0.00,CLR,,0.00,949.0,WeatherDisplay:10.37,2013-06-04 16:54:00,
2013-06-04 12:59:00,68.8,47.2,30.08,North,5,4.1,8.1,46,0.00,CLR,,0.00,949.0,WeatherDisplay:10.37,2013-06-04 16:59:00,
2013-06-04 13:04:00,69.3,51.4,30.08,NW,315,7.9,10.5,53,0.00,CLR,,0.00,951.0,WeatherDisplay:10.37,2013-06-04 17:04:00,
2013-06-04 13:09:00,69.4,51.0,30.08,NNE,22,4.9,8.1,52,0.00,CLR,,0.00,951.0,WeatherDisplay:10.37,2013-06-04 17:09:00,
2013-06-04 13:14:00,69.1,46.9,30.07,NNE,19,2.7,5.8,45,0.00,CLR,,0.00,949.0,WeatherDisplay:10.37,2013-06-04 17:14:00,
2013-06-04 13:19:00,69.1,48.0,30.07,NNW,335,3.7,6.0,47,0.00,CLR,,0.00,949.0,WeatherDisplay:10.37,2013-06-04 17:19:00,
2013-06-04 13:24:00,69.1,49.1,30.07,East,90,8.8,8.8,49,0.00,CLR,,0.00,951.0,WeatherDisplay:10.37,2013-06-04 17:24:00,
2013-06-04 13:29:00,69.3,48.2,30.06,NNE,32,3.7,6.0,47,0.00,CLR,,0.00,949.0,WeatherDisplay:10.37,2013-06-04 17:29:00,
2013-06-04 13:34:00,69.3,48.8,30.06,North,5,5.5,8.1,48,0.00,CLR,,0.00,949.0,WeatherDisplay:10.37,2013-06-04 17:34:00,
2013-06-04 13:39:00,69.3,44.6,30.06,North,355,0.9,4.5,41,0.00,CLR,,0.00,940.0,WeatherDisplay:10.37,2013-06-04 17:39:00,
2013-06-04 13:44:00,69.6,47.9,30.06,NW,311,4.7,5.8,46,0.00,CLR,,0.00,940.0,WeatherDisplay:10.37,2013-06-04 17:44:00,
2013-06-04 13:49:00,69.9,48.7,30.05,West,261,3.3,7.5,47,0.00,CLR,,0.00,939.0,WeatherDisplay:10.37,2013-06-04 17:49:00,
2013-06-04 13:54:00,70.1,50.0,30.05,NNW,331,8.5,9.2,49,0.00,CLR,,0.00,939.0,WeatherDisplay:10.37,2013-06-04 17:54:00,
2013-06-04 13:59:00,70.3,47.3,30.06,WNW,302,7.9,8.1,44,0.00,CLR,,0.00,933.0,WeatherDisplay:10.37,2013-06-04 17:59:00,
2013-06-04 14:04:00,70.3,47.9,30.06,NW,309,0.2,4.6,45,0.00,CLR,,0.00,928.0,WeatherDisplay:10.37,2013-06-04 18:04:00,
2013-06-04 14:09:00,70.4,49.8,30.05,WSW,240,0.8,5.8,48,0.00,CLR,,0.00,923.0,WeatherDisplay:10.37,2013-06-04 18:09:00,
2013-06-04 14:14:00,70.9,50.2,30.05,NW,317,8.5,10.4,48,0.00,CLR,,0.00,918.0,WeatherDisplay:10.37,2013-06-04 18:14:00,
2013-06-04 14:19:00,70.8,49.6,30.05,NNW,340,10.3,10.5,47,0.00,CLR,,0.00,914.0,WeatherDisplay:10.37,2013-06-04 18:19:00,
2013-06-04 14:24:00,70.8,47.8,30.05,WNW,285,5.7,8.1,44,0.00,CLR,,0.00,909.0,WeatherDisplay:10.37,2013-06-04 18:24:00,
2013-06-04 14:29:00,70.8,46.6,30.05,West,273,9.2,10.4,42,0.00,CLR,,0.00,902.0,WeatherDisplay:10.37,2013-06-04 18:29:00,
2013-06-04 14:34:00,71.1,51.5,30.06,NW,324,3.9,9.2,50,0.00,CLR,,0.00,896.0,WeatherDisplay:10.37,2013-06-04 18:34:00,
2013-06-04 14:39:00,71.1,49.8,30.05,NE,46,7.9,9.2,47,0.00,CLR,,0.00,891.0,WeatherDisplay:10.37,2013-06-04 18:39:00,
2013-06-04 14:44:00,71.3,51.7,30.05,NNE,24,4.8,6.0,50,0.00,CLR,,0.00,882.0,WeatherDisplay:10.37,2013-06-04 18:44:00,
2013-06-04 14:49:00,71.3,49.4,30.05,West,267,2.0,4.6,46,0.00,CLR,,0.00,877.0,WeatherDisplay:10.37,2013-06-04 18:49:00,
2013-06-04 14:54:00,71.6,49.7,30.05,NNW,348,2.8,6.0,46,0.00,CLR,,0.00,842.0,WeatherDisplay:10.37,2013-06-04 18:54:00,
2013-06-04 14:59:00,72.0,51.2,30.05,NW,322,2.7,7.5,48,0.00,CLR,,0.00,844.0,WeatherDisplay:10.37,2013-06-04 18:59:00,
2013-06-04 15:04:00,72.3,50.9,30.05,NNW,348,4.2,5.8,47,0.00,CLR,,0.00,844.0,WeatherDisplay:10.37,2013-06-04 19:04:00,
2013-06-04 15:09:00,72.5,49.3,30.05,NW,320,8.6,10.5,44,0.00,CLR,,0.00,837.0,WeatherDisplay:10.37,2013-06-04 19:09:00,
2013-06-04 15:14:00,72.3,49.8,30.05,NNW,344,1.1,5.8,45,0.00,FEW,,0.00,824.0,WeatherDisplay:10.37,2013-06-04 19:14:00,
2013-06-04 15:19:00,72.1,48.4,30.05,West,271,2.9,5.8,43,0.00,FEW,,0.00,809.0,WeatherDisplay:10.37,2013-06-04 19:19:00,
2013-06-04 15:24:00,72.0,46.3,30.05,NNW,339,0.4,1.2,40,0.00,FEW,,0.00,800.0,WeatherDisplay:10.37,2013-06-04 19:24:00,
2013-06-04 15:29:00,72.0,47.6,30.05,WSW,257,1.3,4.5,42,0.00,FEW,,0.00,800.0,WeatherDisplay:10.37,2013-06-04 19:29:00,
2013-06-04 15:34:00,72.1,49.6,30.05,ESE,103,0.6,6.0,45,0.00,FEW,,0.00,795.0,WeatherDisplay:10.37,2013-06-04 19:34:00,
2013-06-04 15:39:00,72.1,47.1,30.05,ENE,62,0.7,3.5,41,0.00,FEW,,0.00,786.0,WeatherDisplay:10.37,2013-06-04 19:39:00,
2013-06-04 15:44:00,72.3,47.9,30.05,WNW,285,0.1,1.5,42,0.00,FEW,,0.00,768.0,WeatherDisplay:10.37,2013-06-04 19:44:00,
2013-06-04 15:49:00,72.5,47.5,30.05,West,263,5.7,5.8,41,0.00,FEW,,0.00,745.0,WeatherDisplay:10.37,2013-06-04 19:49:00,
2013-06-04 15:54:00,73.0,49.8,30.05,NNW,348,7.1,7.5,44,0.00,FEW,,0.00,745.0,WeatherDisplay:10.37,2013-06-04 19:54:00,
2013-06-04 15:59:00,73.2,48.1,30.05,NNW,347,0.0,1.2,41,0.00,FEW,,0.00,728.0,WeatherDisplay:10.37,2013-06-04 19:59:00,
2013-06-04 16:04:00,73.2,48.7,30.05,North,350,0.1,1.5,42,0.00,FEW,,0.00,722.0,WeatherDisplay:10.37,2013-06-04 20:04:00,
2013-06-04 16:09:00,73.2,48.7,30.04,NNE,13,2.0,4.6,42,0.00,FEW,,0.00,710.0,WeatherDisplay:10.37,2013-06-04 20:09:00,
2013-06-04 16:14:00,73.3,48.2,30.04,North,351,5.8,9.2,41,0.00,SCT,,0.00,694.0,WeatherDisplay:10.37,2013-06-04 20:14:00,
2013-06-04 16:19:00,73.3,51.8,30.04,NNE,16,3.1,5.8,47,0.00,SCT,,0.00,664.0,WeatherDisplay:10.37,2013-06-04 20:19:00,
2013-06-04 16:24:00,73.3,50.1,30.04,NNW,342,0.1,1.5,44,0.00,SCT,,0.00,664.0,WeatherDisplay:10.37,2013-06-04 20:24:00,
2013-06-04 16:29:00,73.7,49.2,30.04,North,350,4.0,6.0,42,0.00,SCT,,0.00,659.0,WeatherDisplay:10.37,2013-06-04 20:29:00,
2013-06-04 16:34:00,74.2,51.5,30.04,NNW,339,0.5,3.0,45,0.00,SCT,,0.00,647.0,WeatherDisplay:10.37,2013-06-04 20:34:00,
2013-06-04 16:39:00,74.2,48.3,30.04,NW,325,6.4,9.2,40,0.00,SCT,,0.00,628.0,WeatherDisplay:10.37,2013-06-04 20:39:00,
2013-06-04 16:44:00,73.9,48.7,30.04,NW,323,0.2,8.1,41,0.00,SCT,,0.00,605.0,WeatherDisplay:10.37,2013-06-04 20:44:00,
2013-06-04 16:49:00,74.0,47.5,30.04,WNW,287,3.8,8.1,39,0.00,SCT,,0.00,612.0,WeatherDisplay:10.37,2013-06-04 20:49:00,
2013-06-04 16:54:00,74.2,52.1,30.03,West,277,1.5,3.0,46,0.00,SCT,,0.00,584.0,WeatherDisplay:10.37,2013-06-04 20:54:00,
2013-06-04 16:59:00,74.2,47.6,30.03,SW,225,10.5,13.5,39,0.00,SCT,,0.00,585.0,WeatherDisplay:10.37,2013-06-04 20:59:00,
2013-06-04 17:04:00,73.9,47.4,30.03,SW,227,2.7,4.5,39,0.00,BKN,,0.00,555.0,WeatherDisplay:10.37,2013-06-04 21:04:00,
2013-06-04 17:09:00,73.9,48.1,30.03,SW,227,3.8,5.8,40,0.00,BKN,,0.00,522.0,WeatherDisplay:10.37,2013-06-04 21:09:00,
2013-06-04 17:14:00,73.9,47.4,30.03,SSW,202,0.2,5.8,39,0.00,BKN,,0.00,497.0,WeatherDisplay:10.37,2013-06-04 21:14:00,
2013-06-04 17:19:00,73.9,47.4,30.03,SSW,209,0.0,0.0,39,0.00,BKN,,0.00,519.0,WeatherDisplay:10.37,2013-06-04 21:19:00,
2013-06-04 17:24:00,74.0,48.8,30.03,SE,125,4.0,4.6,41,0.00,BKN,,0.00,512.0,WeatherDisplay:10.37,2013-06-04 21:24:00,
2013-06-04 17:29:00,74.0,46.8,30.03,SE,124,0.0,0.0,38,0.00,BKN,,0.00,512.0,WeatherDisplay:10.37,2013-06-04 21:29:00,
2013-06-04 17:34:00,74.4,47.8,30.03,NNW,342,1.2,4.6,39,0.00,BKN,,0.00,490.0,WeatherDisplay:10.37,2013-06-04 21:34:00,
2013-06-04 17:39:00,74.6,48.0,30.03,NNW,340,0.2,3.5,39,0.00,BKN,,0.00,469.0,WeatherDisplay:10.37,2013-06-04 21:39:00,
2013-06-04 17:44:00,74.9,47.6,30.03,NNW,331,0.1,1.5,38,0.00,BKN,,0.00,441.0,WeatherDisplay:10.37,2013-06-04 21:44:00,
2013-06-04 17:49:00,74.9,48.9,30.03,WSW,242,1.1,3.5,40,0.00,BKN,,0.00,410.0,WeatherDisplay:10.37,2013-06-04 21:49:00,
2013-06-04 17:54:00,74.6,46.6,30.03,SW,228,6.9,8.1,37,0.00,BKN,,0.00,408.0,WeatherDisplay:10.37,2013-06-04 21:54:00,
2013-06-04 17:59:00,74.6,45.1,30.03,SW,228,0.0,1.5,35,0.00,BKN,,0.00,397.0,WeatherDisplay:10.37,2013-06-04 21:59:00,
2013-06-04 18:04:00,74.6,48.7,30.03,WSW,245,1.5,5.8,40,0.00,SCT,,0.00,360.0,WeatherDisplay:10.37,2013-06-04 22:04:00,
2013-06-04 18:09:00,74.6,48.0,30.03,WNW,290,0.1,1.2,39,0.00,SCT,,0.00,371.0,WeatherDisplay:10.37,2013-06-04 22:09:00,
2013-06-04 18:14:00,74.6,48.0,30.03,WNW,291,0.0,0.0,39,0.00,SCT,,0.00,362.0,WeatherDisplay:10.37,2013-06-04 22:14:00,
2013-06-04 18:19:00,74.7,48.8,30.03,WNW,291,1.1,3.0,40,0.00,SCT,,0.00,345.0,WeatherDisplay:10.37,2013-06-04 22:19:00,
2013-06-04 18:24:00,74.7,49.4,30.03,NNW,331,0.1,3.5,41,0.00,SCT,,0.00,334.0,WeatherDisplay:10.37,2013-06-04 22:24:00,
2013-06-04 18:29:00,74.6,48.7,30.03,NNW,331,1.2,3.5,40,0.00,SCT,,0.00,279.0,WeatherDisplay:10.37,2013-06-04 22:29:00,
2013-06-04 18:34:00,74.6,51.2,30.02,NNW,331,0.2,1.5,44,0.00,SCT,,0.00,294.0,WeatherDisplay:10.37,2013-06-04 22:34:00,
2013-06-04 18:39:00,74.6,46.6,30.02,NNW,331,0.0,0.0,37,0.00,SCT,,0.00,260.0,WeatherDisplay:10.37,2013-06-04 22:39:00,
2013-06-04 18:44:00,74.7,48.1,30.03,NNW,331,0.0,3.5,39,0.00,SCT,,0.00,221.0,WeatherDisplay:10.37,2013-06-04 22:44:00,
2013-06-04 18:49:00,74.7,49.4,30.03,NNW,331,0.0,0.0,41,0.00,SCT,,0.00,223.0,WeatherDisplay:10.37,2013-06-04 22:49:00,
2013-06-04 18:54:00,74.9,49.6,30.03,NNW,331,0.0,0.0,41,0.00,SCT,,0.00,193.0,WeatherDisplay:10.37,2013-06-04 22:54:00,
2013-06-04 18:59:00,75.1,47.8,30.03,NNW,331,0.0,1.2,38,0.00,SCT,,0.00,163.0,WeatherDisplay:10.37,2013-06-04 22:59:00,
2013-06-04 19:04:00,74.9,46.9,30.03,NNW,331,0.0,0.0,37,0.00,SCT,,0.00,100.0,WeatherDisplay:10.37,2013-06-04 23:04:00,
2013-06-04 19:09:00,74.6,50.0,30.03,NNW,331,0.0,0.0,42,0.00,SCT,,0.00,88.0,WeatherDisplay:10.37,2013-06-04 23:09:00,
2013-06-04 19:14:00,74.2,48.3,30.03,NNW,331,0.0,0.0,40,0.00,FEW,,0.00,90.0,WeatherDisplay:10.37,2013-06-04 23:14:00,
2013-06-04 19:19:00,73.5,52.0,30.03,NNW,331,0.0,0.0,47,0.00,FEW,,0.00,86.0,WeatherDisplay:10.37,2013-06-04 23:19:00,
2013-06-04 19:24:00,73.0,54.3,30.04,NNW,331,0.0,0.0,52,0.00,FEW,,0.00,83.0,WeatherDisplay:10.37,2013-06-04 23:24:00,
2013-06-04 19:29:00,72.0,54.4,30.04,NNW,331,0.0,0.0,54,0.00,FEW,,0.00,76.0,WeatherDisplay:10.37,2013-06-04 23:29:00,
2013-06-04 19:34:00,70.8,52.8,30.04,NNW,331,0.1,1.2,53,0.00,FEW,,0.00,95.0,WeatherDisplay:10.37,2013-06-04 23:34:00,
2013-06-04 19:39:00,70.3,53.4,30.04,NNW,331,0.0,0.0,55,0.00,FEW,,0.00,104.0,WeatherDisplay:10.37,2013-06-04 23:39:00,
2013-06-04 19:44:00,70.1,53.2,30.04,NNW,331,0.0,0.0,55,0.00,FEW,,0.00,91.0,WeatherDisplay:10.37,2013-06-04 23:44:00,
2013-06-04 19:49:00,70.1,52.2,30.04,NNW,331,0.0,0.0,53,0.00,FEW,,0.00,79.0,WeatherDisplay:10.37,2013-06-04 23:49:00,
2013-06-04 19:54:00,70.1,54.6,30.04,NNW,331,0.0,0.0,58,0.00,FEW,,0.00,69.0,WeatherDisplay:10.37,2013-06-04 23:54:00,
2013-06-04 19:59:00,69.9,53.5,30.05,NNW,331,0.0,0.0,56,0.00,FEW,,0.00,49.0,WeatherDisplay:10.37,2013-06-04 23:59:00,
2013-06-04 20:04:00,69.8,54.4,30.05,NNW,331,0.0,0.0,58,0.00,FEW,,0.00,39.0,WeatherDisplay:10.37,2013-06-05 00:04:00,
2013-06-04 20:09:00,69.1,54.6,30.05,NNW,331,0.0,0.0,60,0.00,FEW,,0.00,26.0,WeatherDisplay:10.37,2013-06-05 00:09:00,
2013-06-04 20:14:00,67.8,53.4,30.05,NNW,331,0.0,0.0,60,0.00,SCT,,0.00,19.0,WeatherDisplay:10.37,2013-06-05 00:14:00,
2013-06-04 20:19:00,66.9,53.9,30.05,NNW,331,0.0,0.0,63,0.00,SCT,,0.00,14.0,WeatherDisplay:10.37,2013-06-05 00:19:00,
2013-06-04 20:24:00,66.3,54.2,30.05,NNW,331,0.0,0.0,65,0.00,SCT,,0.00,9.0,WeatherDisplay:10.37,2013-06-05 00:24:00,
2013-06-04 20:29:00,65.6,53.1,30.05,NNW,331,0.0,0.0,64,0.00,SCT,,0.00,5.0,WeatherDisplay:10.37,2013-06-05 00:29:00,
2013-06-04 20:34:00,65.0,52.9,30.05,NNW,331,0.0,0.0,65,0.00,SCT,,0.00,0.0,WeatherDisplay:10.37,2013-06-05 00:34:00,
2013-06-04 20:39:00,64.5,52.9,30.05,NNW,331,0.0,0.0,66,0.00,SCT,,0.00,0.0,WeatherDisplay:10.37,2013-06-05 00:39:00,
2013-06-04 20:44:00,64.2,54.6,30.05,NNW,331,0.0,0.0,71,0.00,SCT,,0.00,0.0,WeatherDisplay:10.37,2013-06-05 00:44:00,
2013-06-04 20:49:00,63.7,54.1,30.05,NNW,331,0.0,0.0,71,0.00,SCT,,0.00,0.0,WeatherDisplay:10.37,2013-06-05 00:49:00,
2013-06-04 20:54:00,63.2,54.0,30.05,NNW,331,0.0,0.0,72,0.00,SCT,,0.00,0.0,WeatherDisplay:10.37,2013-06-05 00:54:00,
2013-06-04 20:59:00,62.4,53.6,30.05,NNW,331,0.0,0.0,73,0.00,SCT,,0.00,0.0,WeatherDisplay:10.37,2013-06-05 00:59:00,
2013-06-04 21:04:00,61.8,53.4,30.05,NNW,331,0.0,0.0,74,0.00,SCT,,0.00,0.0,WeatherDisplay:10.37,2013-06-05 01:04:00,
2013-06-04 21:09:00,61.3,53.3,30.05,NNW,331,0.0,0.0,75,0.00,SCT,,0.00,0.0,WeatherDisplay:10.37,2013-06-05 01:09:00,
2013-06-04 21:14:00,60.9,53.3,30.06,NNW,331,0.0,0.0,76,0.00,SCT,,0.00,0.0,WeatherDisplay:10.37,2013-06-05 01:14:00,
2013-06-04 21:19:00,60.5,53.3,30.06,NNW,331,0.0,0.0,77,0.00,SCT,,0.00,0.0,WeatherDisplay:10.37,2013-06-05 01:19:00,
2013-06-04 21:24:00,59.9,53.0,30.06,NNW,331,0.0,0.0,78,0.00,SCT,,0.00,0.0,WeatherDisplay:10.37,2013-06-05 01:24:00,
2013-06-04 21:29:00,59.6,52.7,30.07,NNW,331,0.0,0.0,78,0.00,SCT,,0.00,0.0,WeatherDisplay:10.37,2013-06-05 01:29:00,
2013-06-04 21:34:00,59.3,52.8,30.07,NNW,331,0.0,0.0,79,0.00,SCT,,0.00,0.0,WeatherDisplay:10.37,2013-06-05 01:34:00,
2013-06-04 21:39:00,59.0,52.8,30.07,NNW,331,0.0,0.0,80,0.00,SCT,,0.00,0.0,WeatherDisplay:10.37,2013-06-05 01:39:00,
2013-06-04 21:44:00,58.9,53.1,30.07,NNW,331,0.0,0.0,81,0.00,SCT,,0.00,0.0,WeatherDisplay:10.37,2013-06-05 01:44:00,
2013-06-04 21:49:00,58.7,53.2,30.07,NNW,331,0.0,0.0,82,0.00,SCT,,0.00,0.0,WeatherDisplay:10.37,2013-06-05 01:49:00,
2013-06-04 21:54:00,58.4,53.3,30.07,NNW,331,0.0,0.0,83,0.00,SCT,,0.00,0.0,WeatherDisplay:10.37,2013-06-05 01:54:00,
2013-06-04 21:59:00,58.3,53.5,30.08,NNW,331,0.0,0.0,84,0.00,SCT,,0.00,0.0,WeatherDisplay:10.37,2013-06-05 01:59:00,
2013-06-04 22:04:00,58.0,53.2,30.07,NNW,331,0.0,0.0,84,0.00,SCT,,0.00,0.0,WeatherDisplay:10.37,2013-06-05 02:04:00,
2013-06-04 22:09:00,57.6,53.1,30.08,NNW,331,0.0,0.0,85,0.00,SCT,,0.00,0.0,WeatherDisplay:10.37,2013-06-05 02:09:00,
2013-06-04 22:14:00,57.5,53.0,30.08,NNW,331,0.0,0.0,85,0.00,FEW,,0.00,0.0,WeatherDisplay:10.37,2013-06-05 02:14:00,
2013-06-04 22:19:00,57.2,53.0,30.08,NNW,331,0.0,0.0,86,0.00,FEW,,0.00,0.0,WeatherDisplay:10.37,2013-06-05 02:19:00,
2013-06-04 22:24:00,57.0,52.9,30.08,NNW,331,0.0,0.0,86,0.00,FEW,,0.00,0.0,WeatherDisplay:10.37,2013-06-05 02:24:00,
2013-06-04 22:29:00,57.0,53.2,30.09,NNW,331,0.0,0.0,87,0.00,FEW,,0.00,0.0,WeatherDisplay:10.37,2013-06-05 02:29:00,
2013-06-04 22:34:00,56.9,53.4,30.09,NNW,331,0.0,0.0,88,0.00,FEW,,0.00,0.0,WeatherDisplay:10.37,2013-06-05 02:34:00,
2013-06-04 22:39:00,56.7,53.2,30.09,NNW,331,1.2,1.5,88,0.00,FEW,,0.00,0.0,WeatherDisplay:10.37,2013-06-05 02:39:00,
2013-06-04 22:44:00,56.5,53.3,30.09,NNW,331,0.0,0.0,89,0.00,FEW,,0.00,0.0,WeatherDisplay:10.37,2013-06-05 02:44:00,
2013-06-04 22:49:00,56.5,53.3,30.09,NNW,331,0.0,0.0,89,0.00,FEW,,0.00,0.0,WeatherDisplay:10.37,2013-06-05 02:49:00,
2013-06-04 22:54:00,56.3,53.1,30.09,NNW,331,0.0,0.0,89,0.00,FEW,,0.00,0.0,WeatherDisplay:10.37,2013-06-05 02:54:00,
2013-06-04 22:59:00,56.0,52.8,30.09,NNW,331,0.0,0.0,89,0.00,FEW,,0.00,0.0,WeatherDisplay:10.37,2013-06-05 02:59:00,
2013-06-04 23:04:00,55.9,53.0,30.09,NNW,331,0.0,0.0,90,0.00,FEW,,0.00,0.0,WeatherDisplay:10.37,2013-06-05 03:04:00,
2013-06-04 23:09:00,55.7,52.8,30.09,NNW,331,0.0,0.0,90,0.00,FEW,,0.00,0.0,WeatherDisplay:10.37,2013-06-05 03:09:00,
2013-06-04 23:14:00,55.7,52.8,30.09,NNW,331,0.0,0.0,90,0.00,FEW,,0.00,0.0,WeatherDisplay:10.37,2013-06-05 03:14:00,
2013-06-04 23:19:00,55.6,53.0,30.09,NNW,331,0.0,0.0,91,0.00,FEW,,0.00,0.0,WeatherDisplay:10.37,2013-06-05 03:19:00,
2013-06-04 23:24:00,55.1,52.5,30.09,NNW,331,0.0,0.0,91,0.00,FEW,,0.00,0.0,WeatherDisplay:10.37,2013-06-05 03:24:00,
2013-06-04 23:29:00,54.8,52.2,30.09,NNW,331,0.0,0.0,91,0.00,FEW,,0.00,0.0,WeatherDisplay:10.37,2013-06-05 03:29:00,
2013-06-04 23:34:00,55.0,52.4,30.09,NNW,331,0.0,0.0,91,0.00,FEW,,0.00,0.0,WeatherDisplay:10.37,2013-06-05 03:34:00,
2013-06-04 23:39:00,55.0,52.7,30.09,NNW,331,0.0,0.0,92,0.00,FEW,,0.00,0.0,WeatherDisplay:10.37,2013-06-05 03:39:00,
2013-06-04 23:44:00,54.7,52.1,30.09,NNW,331,0.0,0.0,91,0.00,FEW,,0.00,0.0,WeatherDisplay:10.37,2013-06-05 03:44:00,
2013-06-04 23:49:00,54.5,52.2,30.09,NNW,331,0.0,0.0,92,0.00,FEW,,0.00,0.0,WeatherDisplay:10.37,2013-06-05 03:49:00,
2013-06-04 23:54:00,54.2,51.9,30.09,NNW,331,0.0,0.0,92,0.00,FEW,,0.00,0.0,WeatherDisplay:10.37,2013-06-05 03:54:00,
2013-06-04 23:59:00,54.1,51.8,30.09,NNW,331,0.0,0.0,92,0.00,FEW,,0.00,0.0,WeatherDisplay:10.37,2013-06-05 03:59:00,